ADDS TAF Board (Experimental) INFO

IDs: Format: Expanded Condensed

Updated at: 1255 UTC 30 Oct 2014

KMCO - Orlando Intl, FL, US

Issued at 1141 UTC 30 Oct 2014
Time1153Z30/13Z30/14Z30/15Z30/16Z30/17Z30/18Z30/19Z30/20Z30/21Z30/22Z30/23Z31/00Z31/01Z
TypeOBSPRVLPRVLPRVLPRVLPRVLPRVLPRVLPRVLPRVLPRVLPRVLPRVLPRVL
VIS10>6>6>6>6>6>6>6>6>6>6>6>6>6
CIG----------------------------
CoverFEWFEWFEWFEWFEWFEWFEWFEWFEWFEWSCTSCTSCTSCT
FltCat--VFRVFRVFRVFRVFRVFRVFRVFRVFRVFRVFRVFRVFR
WXBCFG------------------VCSHVCSHVCSHVCSH
WDirVRBVRBVRB320320320320320320320300300300300
WSpd03355555556666
WGst----------------------------
R17/35
XWndVRBVRBVRB-3-3-3-3-3-3-3-5-5-5-5
HWndVRBVRBVRB-4-4-4-4-4-4-4-3-3-3-3
R18/36
XWndVRBVRBVRB-3-3-3-3-3-3-3-5-5-5-5
HWndVRBVRBVRB-4-4-4-4-4-4-4-3-3-3-3
Raw TAF
KMCO 301141Z 3012/3112 VRB03KT P6SM FEW100
  FM301500 32005KT P6SM FEW040 FEW250
  FM302200 30006KT P6SM VCSH SCT040 SCT250
  FM310200 VRB03KT P6SM FEW040 BKN250


Raw METAR
KMCO 301153Z 00000KT 10SM BCFG FEW048 17/17 A2998 RMK AO2 SLP151 T01720167 10189 20172 53005

TAF Board Legend

Hazard VFR MVFR IFR LIFR
Visibility (sm) >5 3≤X≤5 1≤X<3 <1
Ceiling (100 ft) >30 10≤X≤30 5≤X<10 <5
Wind Speed (kt) <10 10≤X<20 20≤X<30 ≥30
Wind Gust (kt) <15 15≤X<25 25≤X<35 ≥35
Weather No Wx Reported VCTS,-TS,-FZRA TS,FZRA +TS,+FZRA


Page loaded:  12:55 UTC  |   05:55 AM Pacific  |   06:55 AM Mountain  |   07:55 AM Central  |   08:55 AM Eastern

 

ADVISORIES

FORECASTS

FORECASTS

OBSERVATIONS

USER TOOLS

ABOUT US